createdAt,value
2019-01-24T00:03:16.013Z,18.17
2019-01-24T00:08:45.599Z,17.97
2019-01-24T00:14:15.162Z,18.37
2019-01-24T00:19:44.660Z,17.23
2019-01-24T00:25:14.269Z,18.67
2019-01-24T00:30:43.674Z,17.17
2019-01-24T00:36:13.188Z,18.50
2019-01-24T00:41:42.627Z,18.97
2019-01-24T00:47:12.209Z,19.30
2019-01-24T00:52:41.755Z,18.67
2019-01-24T00:58:11.244Z,17.27
2019-01-24T01:03:40.723Z,17.30
2019-01-24T01:09:10.199Z,16.50
2019-01-24T01:14:39.627Z,17.00
2019-01-24T01:20:13.401Z,16.83
2019-01-24T01:25:43.076Z,15.63
2019-01-24T01:31:12.516Z,15.23
2019-01-24T01:36:41.846Z,18.10
2019-01-24T01:42:11.448Z,15.80
2019-01-24T01:47:40.854Z,18.27
2019-01-24T01:53:10.509Z,19.13
2019-01-24T01:58:40.447Z,17.10
2019-01-24T02:04:10.673Z,18.90
2019-01-24T02:09:43.412Z,23.80
2019-01-24T02:15:16.161Z,21.23
2019-01-24T02:20:45.529Z,19.40
2019-01-24T02:26:16.045Z,22.30
2019-01-24T02:31:46.724Z,20.87
2019-01-24T02:37:16.148Z,21.37
2019-01-24T02:42:45.622Z,20.17
2019-01-24T02:48:15.007Z,22.53
2019-01-24T02:53:44.430Z,18.97
2019-01-24T02:59:13.863Z,19.93
2019-01-24T03:04:43.313Z,19.47
2019-01-24T03:10:14.760Z,20.17
2019-01-24T03:15:44.586Z,21.47
2019-01-24T03:21:14.299Z,19.43
2019-01-24T03:26:44.175Z,21.07
2019-01-24T03:32:13.585Z,18.83
2019-01-24T03:37:43.065Z,17.67
2019-01-24T03:43:12.733Z,15.47
2019-01-24T03:48:48.125Z,18.40
2019-01-24T03:54:17.543Z,19.87
2019-01-24T03:59:46.954Z,18.37
2019-01-24T04:05:16.917Z,17.33
2019-01-24T04:10:46.277Z,16.47
2019-01-24T04:16:15.864Z,15.53
2019-01-24T04:21:45.272Z,16.93
2019-01-24T04:27:14.658Z,16.57
2019-01-24T04:32:44.125Z,14.97
2019-01-24T04:38:13.657Z,14.10
2019-01-24T04:43:43.145Z,14.03
2019-01-24T04:49:12.639Z,18.53
2019-01-24T04:54:41.995Z,16.43
2019-01-24T05:00:29.709Z,15.37
2019-01-24T05:06:00.297Z,18.10
2019-01-24T05:11:29.989Z,16.30
2019-01-24T05:17:02.521Z,14.13
2019-01-24T05:22:32.022Z,15.73
2019-01-24T05:28:01.480Z,15.80
2019-01-24T05:33:31.254Z,17.20
2019-01-24T05:39:01.126Z,18.73
2019-01-24T05:44:31.044Z,18.40
2019-01-24T05:50:06.711Z,17.90
2019-01-24T05:55:45.143Z,18.40
2019-01-24T06:01:29.140Z,18.10
2019-01-24T06:06:58.878Z,17.73
2019-01-24T06:12:28.389Z,18.33
2019-01-24T06:17:57.867Z,19.17
2019-01-24T06:23:27.324Z,17.10
2019-01-24T06:28:56.698Z,14.80
2019-01-24T06:34:27.192Z,17.00
2019-01-24T06:39:56.675Z,16.10
2019-01-24T06:45:26.268Z,17.77
2019-01-24T06:50:55.897Z,16.80
2019-01-24T06:56:25.216Z,16.90
2019-01-24T07:01:54.675Z,17.27
2019-01-24T07:07:24.070Z,17.90
2019-01-24T07:12:53.500Z,19.37
2019-01-24T07:18:22.826Z,15.83
2019-01-24T07:23:52.239Z,17.47
2019-01-24T07:29:21.762Z,18.50
2019-01-24T07:34:51.187Z,18.80
2019-01-24T07:40:21.503Z,16.67
2019-01-24T07:45:50.949Z,17.70
2019-01-24T07:51:20.453Z,19.00
2019-01-24T07:56:49.797Z,18.87
2019-01-24T08:02:19.374Z,19.33
2019-01-24T08:07:48.879Z,16.90
2019-01-24T08:13:18.371Z,19.00
2019-01-24T08:18:47.796Z,21.47
2019-01-24T08:24:17.210Z,18.00
2019-01-24T08:29:46.618Z,20.53
2019-01-24T08:35:16.209Z,20.73
2019-01-24T08:40:45.659Z,18.97
2019-01-24T08:46:14.995Z,19.13
2019-01-24T08:51:44.409Z,22.43
2019-01-24T08:57:13.839Z,21.30
2019-01-24T09:02:43.383Z,19.90
2019-01-24T09:08:12.969Z,19.77
2019-01-24T09:13:42.482Z,23.50
2019-01-24T09:19:11.927Z,23.37
2019-01-24T09:24:41.342Z,19.73
2019-01-24T09:30:21.197Z,20.17
2019-01-24T09:35:50.626Z,21.23
2019-01-24T09:41:19.957Z,21.03
2019-01-24T09:46:49.463Z,18.30
2019-01-24T09:52:18.802Z,20.10
2019-01-24T09:57:48.287Z,21.60
2019-01-24T10:03:17.728Z,25.20
2019-01-24T10:08:47.282Z,19.40
2019-01-24T10:14:16.709Z,18.37
2019-01-24T10:19:46.132Z,20.07
2019-01-24T10:25:25.712Z,23.00
2019-01-24T10:30:55.071Z,22.67
2019-01-24T10:36:24.424Z,19.83
2019-01-24T10:41:53.742Z,23.17
2019-01-24T10:47:23.247Z,23.17
2019-01-24T10:52:52.824Z,21.70
2019-01-24T10:58:22.219Z,22.13
2019-01-24T11:03:51.806Z,24.80
2019-01-24T11:09:21.368Z,20.17
2019-01-24T11:14:50.857Z,19.17
2019-01-24T11:20:21.207Z,21.20
2019-01-24T11:25:50.687Z,20.37
2019-01-24T11:31:20.093Z,19.10
2019-01-24T11:36:49.498Z,19.10
2019-01-24T11:42:18.983Z,21.60
2019-01-24T11:47:48.477Z,17.73
2019-01-24T11:53:17.889Z,19.00
2019-01-24T11:58:47.371Z,18.83
2019-01-24T12:04:16.815Z,19.60
2019-01-24T12:09:46.215Z,17.47
2019-01-24T12:15:22.145Z,19.03
2019-01-24T12:20:51.509Z,18.10
2019-01-24T12:26:21.000Z,17.13
2019-01-24T12:31:50.333Z,19.00
2019-01-24T12:37:19.699Z,19.60
2019-01-24T12:42:49.438Z,17.27
2019-01-24T12:48:18.905Z,16.27
2019-01-24T12:53:48.238Z,17.30
2019-01-24T12:59:17.639Z,17.60
2019-01-24T13:04:47.091Z,14.90
2019-01-24T13:10:22.574Z,15.97
2019-01-24T13:15:52.157Z,16.63
2019-01-24T13:21:21.465Z,15.00
2019-01-24T13:26:50.797Z,18.23
2019-01-24T13:32:21.266Z,17.70
2019-01-24T13:37:50.744Z,19.47
2019-01-24T13:43:20.045Z,17.40
2019-01-24T13:48:49.386Z,16.60
2019-01-24T13:54:18.724Z,19.40
2019-01-24T13:59:48.248Z,18.00
2019-01-24T14:05:19.798Z,17.83
2019-01-24T14:10:49.137Z,17.57
2019-01-24T14:16:18.614Z,17.27
2019-01-24T14:21:48.013Z,15.63
2019-01-24T14:27:17.427Z,15.60
2019-01-24T14:32:46.836Z,18.57
2019-01-24T14:38:16.299Z,17.20
2019-01-24T14:43:45.687Z,17.63
2019-01-24T14:49:15.114Z,16.60
2019-01-24T14:54:44.481Z,18.00
2019-01-24T15:00:24.130Z,18.50
2019-01-24T15:05:53.555Z,17.73
2019-01-24T15:11:23.294Z,19.20
2019-01-24T15:16:53.469Z,16.40
2019-01-24T15:22:26.736Z,17.63
2019-01-24T15:28:11.579Z,18.30
2019-01-24T15:33:49.432Z,17.40
2019-01-24T15:39:26.653Z,18.17
2019-01-24T15:44:56.133Z,16.10
2019-01-24T15:50:25.898Z,15.13
2019-01-24T15:55:55.288Z,17.40
2019-01-24T16:01:24.856Z,17.57
2019-01-24T16:06:54.178Z,17.00
2019-01-24T16:12:23.588Z,15.80
2019-01-24T16:17:53.028Z,15.20
2019-01-24T16:23:22.567Z,18.77
2019-01-24T16:28:52.097Z,17.27
2019-01-24T16:34:21.484Z,17.57
2019-01-24T16:39:50.877Z,18.43
2019-01-24T16:45:23.411Z,17.10
2019-01-24T16:50:52.837Z,18.40
2019-01-24T16:56:22.285Z,16.23
2019-01-24T17:01:51.629Z,16.17
2019-01-24T17:07:20.990Z,19.10
2019-01-24T17:12:50.621Z,20.37
2019-01-24T17:18:20.076Z,21.37
2019-01-24T17:23:49.411Z,19.67
2019-01-24T17:29:18.810Z,21.40
2019-01-24T17:34:48.271Z,21.80
2019-01-24T17:40:35.379Z,24.57
2019-01-24T17:46:05.219Z,22.70
2019-01-24T17:51:34.678Z,24.97
2019-01-24T17:57:04.241Z,27.43
2019-01-24T18:02:33.880Z,29.90
2019-01-24T18:08:03.395Z,23.27
2019-01-24T18:13:34.018Z,27.10
2019-01-24T18:19:03.790Z,30.87
2019-01-24T18:24:33.468Z,26.23
2019-01-24T18:30:03.221Z,29.00
2019-01-24T18:35:32.817Z,28.03
2019-01-24T18:41:08.559Z,27.60
2019-01-24T18:46:34.047Z,29.07
2019-01-24T18:52:05.559Z,26.13
2019-01-24T18:57:35.220Z,24.67
2019-01-24T19:03:06.482Z,25.00
2019-01-24T19:08:36.076Z,25.43
2019-01-24T19:14:05.778Z,23.80
2019-01-24T19:19:35.250Z,24.47
2019-01-24T19:25:08.135Z,23.30
2019-01-24T19:30:37.797Z,21.37
2019-01-24T19:36:07.575Z,21.60
2019-01-24T19:41:38.866Z,19.57
2019-01-24T19:47:10.351Z,20.93
2019-01-24T19:52:39.975Z,22.87
2019-01-24T19:58:09.582Z,20.10
2019-01-24T20:03:39.077Z,20.23
2019-01-24T20:09:09.773Z,21.00
2019-01-24T20:14:45.159Z,22.13
2019-01-24T20:20:20.647Z,23.20
2019-01-24T20:25:50.152Z,21.63
2019-01-24T20:31:19.821Z,23.40
2019-01-24T20:36:49.313Z,20.93
2019-01-24T20:42:18.810Z,24.00
2019-01-24T20:47:48.339Z,22.17
2019-01-24T20:53:18.135Z,21.53
2019-01-24T20:58:47.594Z,21.73
2019-01-24T21:04:16.997Z,22.00
2019-01-24T21:09:46.473Z,21.27
2019-01-24T21:15:25.003Z,22.23
2019-01-24T21:20:54.600Z,20.83
2019-01-24T21:26:24.187Z,22.20
2019-01-24T21:31:53.805Z,16.57
2019-01-24T21:37:23.427Z,17.07
2019-01-24T21:42:52.931Z,15.97
2019-01-24T21:48:24.386Z,17.70
2019-01-24T21:53:53.864Z,15.40
2019-01-24T21:59:23.291Z,16.93
2019-01-24T22:04:52.796Z,12.50
2019-01-24T22:10:30.760Z,15.43
2019-01-24T22:16:00.470Z,16.47
2019-01-24T22:21:30.094Z,16.30
2019-01-24T22:27:00.401Z,17.70
2019-01-24T22:32:31.464Z,19.67
2019-01-24T22:38:02.169Z,18.83
2019-01-24T22:43:31.915Z,18.53
2019-01-24T22:49:01.575Z,19.00
2019-01-24T22:54:31.097Z,17.50
2019-01-24T23:00:00.579Z,18.23
2019-01-24T23:05:30.389Z,19.03
2019-01-24T23:11:00.981Z,21.70
2019-01-24T23:16:30.838Z,20.80
2019-01-24T23:22:00.535Z,17.90
2019-01-24T23:27:30.145Z,15.40
2019-01-24T23:32:59.887Z,19.00
2019-01-24T23:38:29.842Z,18.00
2019-01-24T23:43:59.754Z,18.87
2019-01-24T23:49:29.537Z,19.97
2019-01-24T23:55:00.540Z,16.20
